createdAt,value
2023-03-02T00:01:10.411Z,26.52
2023-03-02T00:03:40.476Z,26.70
2023-03-02T00:06:08.908Z,26.52
2023-03-02T00:08:36.745Z,26.77
2023-03-02T00:11:03.569Z,28.77
2023-03-02T00:13:32.088Z,28.33
2023-03-02T00:15:58.905Z,27.50
2023-03-02T00:18:25.581Z,27.15
2023-03-02T00:20:52.206Z,27.10
2023-03-02T00:23:19.219Z,29.65
2023-03-02T00:25:45.905Z,27.17
2023-03-02T00:28:12.596Z,28.23
2023-03-02T00:30:39.291Z,29.42
2023-03-02T00:33:05.934Z,28.63
2023-03-02T00:35:38.048Z,29.02
2023-03-02T00:38:04.840Z,31.38
2023-03-02T00:40:31.467Z,27.75
2023-03-02T00:42:58.100Z,30.30
2023-03-02T00:45:24.999Z,27.85
2023-03-02T00:47:51.709Z,28.73
2023-03-02T00:50:18.366Z,27.90
2023-03-02T00:52:45.037Z,29.33
2023-03-02T00:55:11.718Z,26.77
2023-03-02T00:57:38.329Z,30.77
2023-03-02T01:00:05.978Z,28.88
2023-03-02T01:02:32.730Z,28.98
2023-03-02T01:04:59.393Z,27.55
2023-03-02T01:07:28.304Z,29.50
2023-03-02T01:09:54.990Z,27.80
2023-03-02T01:12:24.113Z,29.17
2023-03-02T01:14:50.955Z,27.92
2023-03-02T01:17:17.680Z,26.88
2023-03-02T01:19:44.666Z,30.38
2023-03-02T01:22:11.582Z,28.67
2023-03-02T01:24:38.181Z,26.90
2023-03-02T01:27:04.811Z,27.98
2023-03-02T01:29:31.543Z,27.02
2023-03-02T01:31:58.244Z,29.50
2023-03-02T01:34:25.005Z,28.77
2023-03-02T01:36:51.687Z,27.88
2023-03-02T01:39:18.464Z,30.08
2023-03-02T01:41:46.485Z,30.20
2023-03-02T01:44:44.626Z,28.17
2023-03-02T01:47:26.807Z,26.88
2023-03-02T01:49:59.148Z,29.55
2023-03-02T01:52:26.785Z,30.20
2023-03-02T01:54:57.659Z,29.23
2023-03-02T01:57:32.802Z,30.23
2023-03-02T02:00:08.565Z,31.98
2023-03-02T02:02:36.468Z,30.08
2023-03-02T02:05:04.128Z,29.35
2023-03-02T02:07:31.346Z,32.05
2023-03-02T02:09:58.821Z,31.35
2023-03-02T02:12:25.611Z,32.85
2023-03-02T02:14:53.969Z,31.33
2023-03-02T02:17:20.712Z,32.40
2023-03-02T02:20:16.462Z,32.45
2023-03-02T02:23:17.554Z,30.13
2023-03-02T02:26:13.895Z,29.70
2023-03-02T02:29:14.664Z,31.63
2023-03-02T02:32:05.122Z,27.42
2023-03-02T02:34:58.825Z,29.75
2023-03-02T02:37:38.478Z,26.90
2023-03-02T02:40:10.375Z,28.30
2023-03-02T02:42:42.226Z,29.40
2023-03-02T02:45:21.099Z,30.02
2023-03-02T02:47:49.468Z,32.03
2023-03-02T02:50:35.360Z,30.60
2023-03-02T02:53:26.098Z,31.40
2023-03-02T02:55:56.879Z,112.55
2023-03-02T02:58:51.101Z,242.43
2023-03-02T03:01:27.716Z,117.55
2023-03-02T03:04:02.211Z,99.63
2023-03-02T03:06:38.511Z,86.13
2023-03-02T03:09:10.337Z,72.40
2023-03-02T03:11:41.348Z,65.25
2023-03-02T03:14:11.596Z,73.32
2023-03-02T03:16:41.530Z,48.80
2023-03-02T03:19:11.877Z,46.75
2023-03-02T03:21:38.560Z,42.40
2023-03-02T03:24:05.753Z,39.08
2023-03-02T03:26:32.762Z,39.78
2023-03-02T03:28:59.876Z,38.60
2023-03-02T03:31:27.452Z,40.63
2023-03-02T03:33:55.825Z,37.90
2023-03-02T03:36:22.817Z,39.45
2023-03-02T03:38:49.508Z,38.13
2023-03-02T03:41:16.276Z,39.60
2023-03-02T03:43:43.057Z,38.90
2023-03-02T03:46:09.696Z,37.58
2023-03-02T03:48:36.594Z,37.45
2023-03-02T03:51:03.787Z,36.75
2023-03-02T03:53:30.503Z,34.65
2023-03-02T03:55:57.213Z,34.65
2023-03-02T03:58:25.315Z,36.15
2023-03-02T04:00:52.881Z,35.60
2023-03-02T04:03:20.519Z,57.92
2023-03-02T04:05:48.177Z,37.97
2023-03-02T04:08:14.825Z,34.35
2023-03-02T04:10:41.804Z,35.67
2023-03-02T04:13:08.674Z,37.35
2023-03-02T04:15:35.471Z,36.45
2023-03-02T04:18:02.484Z,36.22
2023-03-02T04:20:29.743Z,34.60
2023-03-02T04:22:57.761Z,37.17
2023-03-02T04:25:26.571Z,34.70
2023-03-02T04:27:53.855Z,33.75
2023-03-02T04:30:24.802Z,35.17
2023-03-02T04:32:51.581Z,34.70
2023-03-02T04:35:18.297Z,36.80
2023-03-02T04:37:46.989Z,39.60
2023-03-02T04:40:14.737Z,39.40
2023-03-02T04:42:41.825Z,38.17
2023-03-02T04:45:09.310Z,38.55
2023-03-02T04:47:36.013Z,38.15
2023-03-02T04:50:03.287Z,51.00
2023-03-02T04:52:29.962Z,48.22
2023-03-02T04:54:56.602Z,46.35
2023-03-02T04:57:23.258Z,41.65
2023-03-02T04:59:49.885Z,43.53
2023-03-02T05:02:16.624Z,43.03
2023-03-02T05:04:43.309Z,41.60
2023-03-02T05:07:09.970Z,48.80
2023-03-02T05:09:36.727Z,51.15
2023-03-02T05:12:03.913Z,45.28
2023-03-02T05:14:30.983Z,46.95
2023-03-02T05:16:57.789Z,41.28
2023-03-02T05:19:24.453Z,42.03
2023-03-02T05:21:51.111Z,45.20
2023-03-02T05:24:17.806Z,43.75
2023-03-02T05:26:44.489Z,41.58
2023-03-02T05:29:11.210Z,44.83
2023-03-02T05:31:41.414Z,42.10
2023-03-02T05:34:11.513Z,42.67
2023-03-02T05:36:38.903Z,44.35
2023-03-02T05:39:06.932Z,40.30
2023-03-02T05:41:33.900Z,42.75
2023-03-02T05:44:01.108Z,42.78
2023-03-02T05:46:28.201Z,44.15
2023-03-02T05:48:54.829Z,43.03
2023-03-02T05:51:21.655Z,42.70
2023-03-02T05:53:48.405Z,42.22
2023-03-02T05:56:15.051Z,43.55
2023-03-02T05:58:41.699Z,44.30
2023-03-02T06:01:12.665Z,42.85
2023-03-02T06:03:41.832Z,43.13
2023-03-02T06:06:08.430Z,44.55
2023-03-02T06:08:35.193Z,43.25
2023-03-02T06:11:01.890Z,42.95
2023-03-02T06:13:28.548Z,45.75
2023-03-02T06:15:55.834Z,45.13
2023-03-02T06:18:22.469Z,43.97
2023-03-02T06:20:50.566Z,46.83
2023-03-02T06:23:17.295Z,43.30
2023-03-02T06:25:48.588Z,45.05
2023-03-02T06:28:16.613Z,42.47
2023-03-02T06:30:43.316Z,43.53
2023-03-02T06:33:10.099Z,43.20
2023-03-02T06:35:36.823Z,43.47
2023-03-02T06:38:03.673Z,41.38
2023-03-02T06:40:31.034Z,44.85
2023-03-02T06:43:00.924Z,42.60
2023-03-02T06:45:29.240Z,41.03
2023-03-02T06:47:56.133Z,44.53
2023-03-02T06:50:22.774Z,46.40
2023-03-02T06:52:49.401Z,43.47
2023-03-02T06:55:16.070Z,42.30
2023-03-02T06:57:42.713Z,40.97
2023-03-02T07:00:15.454Z,40.97
2023-03-02T07:02:42.104Z,41.22
2023-03-02T07:05:08.962Z,40.65
2023-03-02T07:07:35.686Z,44.22
2023-03-02T07:10:02.595Z,39.92
2023-03-02T07:12:29.207Z,43.80
2023-03-02T07:14:55.883Z,40.58
2023-03-02T07:17:22.545Z,40.60
2023-03-02T07:19:49.206Z,45.90
2023-03-02T07:22:15.895Z,39.60
2023-03-02T07:24:44.861Z,41.38
2023-03-02T07:27:11.741Z,39.17
2023-03-02T07:29:38.466Z,40.63
2023-03-02T07:32:06.909Z,39.20
2023-03-02T07:34:33.565Z,38.83
2023-03-02T07:37:00.302Z,40.35
2023-03-02T07:39:26.949Z,40.03
2023-03-02T07:41:53.578Z,38.80
2023-03-02T07:44:20.292Z,39.88
2023-03-02T07:46:47.028Z,40.35
2023-03-02T07:49:13.663Z,37.60
2023-03-02T07:51:40.324Z,38.35
2023-03-02T07:54:06.979Z,37.15
2023-03-02T07:56:33.612Z,41.20
2023-03-02T07:59:00.246Z,39.80
2023-03-02T08:01:27.150Z,39.40
2023-03-02T08:03:53.948Z,39.45
2023-03-02T08:06:20.796Z,40.38
2023-03-02T08:08:47.440Z,37.65
2023-03-02T08:11:17.302Z,40.33
2023-03-02T08:13:45.453Z,43.00
2023-03-02T08:16:13.927Z,41.88
2023-03-02T08:18:41.539Z,44.72
2023-03-02T08:21:13.394Z,44.15
2023-03-02T08:23:40.226Z,42.15
2023-03-02T08:26:07.133Z,43.47
2023-03-02T08:28:34.669Z,43.28
2023-03-02T08:31:02.553Z,43.63
2023-03-02T08:33:30.849Z,38.05
2023-03-02T08:36:06.623Z,40.33
2023-03-02T08:38:35.219Z,39.78
2023-03-02T08:41:09.526Z,42.38
2023-03-02T08:43:36.434Z,40.13
2023-03-02T08:46:04.236Z,40.20
2023-03-02T08:48:31.408Z,40.70
2023-03-02T08:51:04.974Z,38.35
2023-03-02T08:53:34.908Z,38.88
2023-03-02T08:56:01.737Z,40.85
2023-03-02T08:58:28.816Z,39.33
2023-03-02T09:00:55.755Z,37.92
2023-03-02T09:03:22.391Z,39.75
2023-03-02T09:05:48.986Z,39.75
2023-03-02T09:08:15.625Z,38.53
2023-03-02T09:10:42.242Z,38.45
2023-03-02T09:13:08.867Z,37.00
2023-03-02T09:15:35.673Z,39.90
2023-03-02T09:18:02.297Z,39.03
2023-03-02T09:20:28.991Z,37.90
2023-03-02T09:22:55.670Z,37.25
2023-03-02T09:25:22.340Z,35.63
2023-03-02T09:27:49.032Z,36.90
2023-03-02T09:30:16.312Z,36.20
2023-03-02T09:32:43.198Z,37.63
2023-03-02T09:35:10.372Z,38.78
2023-03-02T09:37:38.911Z,36.22
2023-03-02T09:40:16.370Z,37.00
2023-03-02T09:42:59.609Z,38.55
2023-03-02T09:45:59.059Z,35.80
2023-03-02T09:48:59.015Z,37.90
2023-03-02T09:51:35.046Z,36.13
2023-03-02T09:54:12.768Z,35.65
2023-03-02T09:56:52.378Z,36.10
2023-03-02T09:59:42.024Z,34.78
2023-03-02T10:02:28.147Z,34.22
2023-03-02T10:04:57.222Z,33.47
2023-03-02T10:07:29.203Z,34.00
2023-03-02T10:10:32.819Z,33.05
2023-03-02T10:13:05.169Z,31.83
2023-03-02T10:15:39.011Z,31.50
2023-03-02T10:18:42.155Z,30.98
2023-03-02T10:24:01.039Z,30.67
2023-03-02T10:26:40.265Z,34.63
2023-03-02T10:29:21.757Z,33.05
2023-03-02T10:31:52.924Z,33.00
2023-03-02T10:34:19.854Z,34.13
2023-03-02T10:36:47.741Z,34.47
2023-03-02T10:39:16.088Z,33.38
2023-03-02T10:41:50.293Z,31.85
2023-03-02T10:44:25.625Z,30.27
2023-03-02T10:46:53.834Z,29.35
2023-03-02T10:49:35.433Z,30.38
2023-03-02T10:52:12.770Z,30.08
2023-03-02T10:54:39.603Z,28.90
2023-03-02T10:57:31.015Z,29.35
2023-03-02T11:00:22.144Z,29.63
2023-03-02T11:03:04.197Z,29.50
2023-03-02T11:05:40.066Z,28.65
2023-03-02T11:08:10.835Z,27.90
2023-03-02T11:10:40.839Z,27.52
2023-03-02T11:13:26.925Z,27.88
2023-03-02T11:16:02.136Z,27.67
2023-03-02T11:18:40.138Z,27.73
2023-03-02T11:21:11.885Z,27.35
2023-03-02T11:23:53.368Z,26.07
2023-03-02T11:26:30.560Z,24.88
2023-03-02T11:29:06.338Z,26.45
2023-03-02T11:31:41.532Z,25.83
2023-03-02T11:34:19.972Z,26.27
2023-03-02T11:37:16.740Z,25.80
2023-03-02T11:40:20.901Z,23.80
2023-03-02T11:42:47.970Z,25.25
2023-03-02T11:45:20.098Z,25.85
2023-03-02T11:48:08.129Z,25.92
2023-03-02T11:50:44.390Z,26.65
2023-03-02T11:53:15.756Z,26.42
2023-03-02T11:55:49.481Z,26.88
2023-03-02T11:58:21.749Z,26.88
2023-03-02T12:00:50.024Z,26.65
2023-03-02T12:03:23.747Z,28.08
2023-03-02T12:06:38.875Z,27.30
2023-03-02T12:09:33.171Z,25.60
2023-03-02T12:12:33.667Z,26.40
2023-03-02T12:15:01.178Z,26.55
2023-03-02T12:17:27.690Z,26.10
2023-03-02T12:20:08.885Z,26.70
2023-03-02T12:22:37.512Z,27.23
2023-03-02T12:25:26.347Z,24.52
2023-03-02T12:27:54.585Z,25.45
2023-03-02T12:30:26.694Z,26.63
2023-03-02T12:32:59.580Z,23.50
2023-03-02T12:35:26.710Z,25.70
2023-03-02T12:38:17.864Z,23.80
2023-03-02T12:40:47.155Z,26.75
2023-03-02T12:43:33.749Z,23.13
2023-03-02T12:46:18.832Z,23.52
2023-03-02T12:48:59.416Z,24.98
2023-03-02T12:51:29.371Z,26.08
2023-03-02T12:54:07.684Z,23.67
2023-03-02T12:56:34.669Z,25.17
2023-03-02T12:59:01.433Z,24.88
2023-03-02T13:01:30.265Z,24.17
2023-03-02T13:03:57.488Z,24.65
2023-03-02T13:06:27.548Z,24.85
2023-03-02T13:08:56.995Z,24.42
2023-03-02T13:11:33.875Z,22.40
2023-03-02T13:14:03.755Z,22.95
2023-03-02T13:16:33.380Z,24.67
2023-03-02T13:19:02.657Z,23.77
2023-03-02T13:21:37.660Z,22.63
2023-03-02T13:24:24.720Z,24.83
2023-03-02T13:27:04.633Z,23.65
2023-03-02T13:29:31.961Z,25.25
2023-03-02T13:32:42.060Z,22.95
2023-03-02T13:35:25.555Z,22.55
2023-03-02T13:38:14.156Z,23.52
2023-03-02T13:40:46.081Z,23.27
2023-03-02T13:43:35.888Z,23.48
2023-03-02T13:46:35.144Z,23.98
2023-03-02T13:49:10.708Z,24.67
2023-03-02T13:51:47.277Z,22.95
2023-03-02T13:54:22.414Z,24.38
2023-03-02T13:56:51.225Z,26.95
2023-03-02T13:59:20.138Z,24.30
2023-03-02T14:01:46.947Z,24.65
2023-03-02T14:04:17.581Z,23.20
2023-03-02T14:06:45.784Z,25.15
2023-03-02T14:09:12.841Z,22.70
2023-03-02T14:11:43.452Z,23.48
2023-03-02T14:14:17.730Z,23.77
2023-03-02T14:16:44.410Z,24.08
2023-03-02T14:19:13.714Z,25.02
2023-03-02T14:21:41.172Z,25.08
2023-03-02T14:24:07.818Z,24.75
2023-03-02T14:26:40.888Z,24.10
2023-03-02T14:29:19.703Z,24.02
2023-03-02T14:31:46.357Z,24.50
2023-03-02T14:34:14.804Z,25.50
2023-03-02T14:36:43.831Z,25.83
2023-03-02T14:39:23.284Z,25.92
2023-03-02T14:41:54.111Z,22.92
2023-03-02T14:44:22.209Z,22.80
2023-03-02T14:46:48.982Z,23.80
2023-03-02T14:49:15.699Z,23.70
2023-03-02T14:51:45.057Z,23.35
2023-03-02T14:54:17.402Z,24.02
2023-03-02T14:56:44.225Z,24.65
2023-03-02T14:59:14.315Z,21.88
2023-03-02T15:01:43.518Z,23.65
2023-03-02T15:04:10.524Z,23.35
2023-03-02T15:06:39.928Z,23.58
2023-03-02T15:09:06.838Z,22.92
2023-03-02T15:11:34.159Z,24.73
2023-03-02T15:14:00.921Z,24.98
2023-03-02T15:16:27.747Z,22.90
2023-03-02T15:18:54.496Z,26.13
2023-03-02T15:21:23.968Z,27.33
2023-03-02T15:23:51.059Z,25.13
2023-03-02T15:26:18.035Z,25.35
2023-03-02T15:28:45.682Z,24.75
2023-03-02T15:31:16.082Z,24.90
2023-03-02T15:33:45.180Z,24.15
2023-03-02T15:36:12.869Z,24.67
2023-03-02T15:38:39.715Z,21.33
2023-03-02T15:41:13.756Z,23.33
2023-03-02T15:43:40.467Z,22.80
2023-03-02T15:46:09.340Z,22.98
2023-03-02T15:48:36.997Z,24.63
2023-03-02T15:51:05.969Z,24.58
2023-03-02T15:53:37.447Z,23.17
2023-03-02T15:56:10.445Z,21.67
2023-03-02T16:01:07.781Z,21.40
2023-03-02T16:03:34.551Z,22.17
2023-03-02T16:06:01.223Z,20.88
2023-03-02T16:08:27.856Z,20.52
2023-03-02T16:11:03.185Z,19.75
2023-03-02T16:13:32.908Z,19.48
2023-03-02T16:16:04.644Z,20.33
2023-03-02T16:18:31.463Z,18.73
2023-03-02T16:20:58.388Z,18.52
2023-03-02T16:23:25.087Z,28.50
2023-03-02T16:25:52.339Z,233.82
2023-03-02T16:28:19.782Z,141.13
2023-03-02T16:30:47.042Z,46.22
2023-03-02T16:33:17.258Z,34.35
2023-03-02T16:35:44.279Z,31.02
2023-03-02T16:38:10.972Z,96.95
2023-03-02T16:40:40.143Z,26.98
2023-03-02T16:43:09.010Z,18.67
2023-03-02T16:45:35.958Z,17.52
2023-03-02T16:48:03.858Z,17.55
2023-03-02T16:50:30.922Z,17.42
2023-03-02T16:52:58.572Z,17.35
2023-03-02T16:55:25.823Z,18.88
2023-03-02T16:57:52.782Z,17.05
2023-03-02T17:00:20.805Z,16.42
2023-03-02T17:02:48.444Z,17.27
2023-03-02T17:05:17.475Z,17.17
2023-03-02T17:07:44.143Z,18.83
2023-03-02T17:10:15.188Z,16.67
2023-03-02T17:12:41.846Z,16.42
2023-03-02T17:15:09.289Z,17.40
2023-03-02T17:17:35.941Z,17.23
2023-03-02T17:20:02.658Z,16.38
2023-03-02T17:22:29.321Z,14.65
2023-03-02T17:24:55.939Z,14.93
2023-03-02T17:27:25.949Z,15.45
2023-03-02T17:29:53.806Z,14.75
2023-03-02T17:32:21.741Z,15.35
2023-03-02T17:34:48.473Z,15.90
2023-03-02T17:37:17.374Z,15.55
2023-03-02T17:39:44.005Z,15.10
2023-03-02T17:42:10.691Z,13.63
2023-03-02T17:44:40.775Z,14.32
2023-03-02T17:47:08.342Z,13.75
2023-03-02T17:49:40.330Z,14.32
2023-03-02T17:52:07.139Z,22.92
2023-03-02T17:54:33.783Z,26.27
2023-03-02T17:57:00.490Z,17.63
2023-03-02T17:59:27.126Z,15.63
2023-03-02T18:01:53.753Z,15.80
2023-03-02T18:04:20.504Z,15.02
2023-03-02T18:06:47.347Z,15.90
2023-03-02T18:09:14.027Z,16.40
2023-03-02T18:11:43.836Z,14.98
2023-03-02T18:14:15.744Z,13.98
2023-03-02T18:16:42.456Z,14.00
2023-03-02T18:19:09.284Z,14.02
2023-03-02T18:21:36.484Z,16.08
2023-03-02T18:24:04.030Z,15.43
2023-03-02T18:26:30.745Z,16.52
2023-03-02T18:28:57.571Z,14.95
2023-03-02T18:31:24.337Z,14.38
2023-03-02T18:33:51.265Z,15.05
2023-03-02T18:36:18.090Z,14.60
2023-03-02T18:38:45.191Z,14.13
2023-03-02T18:41:13.095Z,16.48
2023-03-02T18:43:41.340Z,20.95
2023-03-02T18:46:17.549Z,30.60
2023-03-02T18:48:44.242Z,41.67
2023-03-02T18:51:10.870Z,26.13
2023-03-02T18:53:38.152Z,23.35
2023-03-02T18:56:05.254Z,34.30
2023-03-02T18:58:34.154Z,29.85
2023-03-02T19:01:01.979Z,28.50
2023-03-02T19:03:29.039Z,21.90
2023-03-02T19:05:58.135Z,20.80
2023-03-02T19:08:25.971Z,20.27
2023-03-02T19:10:53.924Z,19.40
2023-03-02T19:13:20.880Z,17.85
2023-03-02T19:15:47.849Z,19.60
2023-03-02T19:18:19.025Z,18.77
2023-03-02T19:20:46.917Z,19.48
2023-03-02T19:23:13.613Z,18.40
2023-03-02T19:25:40.383Z,18.08
2023-03-02T19:28:07.415Z,19.05
2023-03-02T19:30:34.777Z,19.08
2023-03-02T19:33:01.908Z,20.15
2023-03-02T19:35:29.798Z,20.33
2023-03-02T19:37:56.453Z,19.48
2023-03-02T19:40:25.411Z,19.33
2023-03-02T19:42:53.326Z,19.90
2023-03-02T19:45:23.808Z,21.50
2023-03-02T19:47:51.053Z,19.33
2023-03-02T19:50:19.679Z,18.85
2023-03-02T19:52:46.887Z,20.02
2023-03-02T19:55:14.923Z,18.77
2023-03-02T19:57:43.244Z,19.58
2023-03-02T20:00:16.467Z,19.85
2023-03-02T20:02:43.124Z,19.20
2023-03-02T20:05:10.698Z,18.00
2023-03-02T20:07:41.291Z,18.95
2023-03-02T20:10:11.378Z,19.25
2023-03-02T20:12:40.779Z,21.00
2023-03-02T20:15:07.860Z,19.58
2023-03-02T20:17:34.653Z,17.23
2023-03-02T20:20:03.539Z,21.30
2023-03-02T20:22:31.297Z,20.90
2023-03-02T20:24:57.918Z,18.90
2023-03-02T20:27:24.623Z,19.63
2023-03-02T20:29:51.287Z,18.02
2023-03-02T20:32:18.061Z,20.63
2023-03-02T20:34:45.146Z,19.30
2023-03-02T20:37:14.916Z,19.83
2023-03-02T20:39:44.043Z,20.05
2023-03-02T20:42:12.224Z,19.13
2023-03-02T20:44:39.016Z,19.08
2023-03-02T20:47:09.824Z,21.08
2023-03-02T20:49:37.732Z,22.63
2023-03-02T20:52:05.184Z,21.30
2023-03-02T20:54:35.641Z,20.60
2023-03-02T20:57:02.332Z,20.48
2023-03-02T20:59:29.338Z,20.40
2023-03-02T21:01:56.050Z,19.83
2023-03-02T21:04:23.040Z,18.83
2023-03-02T21:06:50.376Z,19.90
2023-03-02T21:09:18.064Z,18.90
2023-03-02T21:11:46.121Z,18.48
2023-03-02T21:14:16.256Z,19.58
2023-03-02T21:16:44.780Z,19.33
2023-03-02T21:19:17.541Z,19.38
2023-03-02T21:21:44.684Z,19.70
2023-03-02T21:24:13.288Z,19.35
2023-03-02T21:26:41.598Z,19.17
2023-03-02T21:29:09.449Z,18.90
2023-03-02T21:31:36.293Z,18.70
2023-03-02T21:34:03.495Z,19.17
2023-03-02T21:36:30.449Z,18.95
2023-03-02T21:38:57.278Z,19.95
2023-03-02T21:41:24.650Z,20.13
2023-03-02T21:43:51.465Z,19.65
2023-03-02T21:46:22.375Z,18.00
2023-03-02T21:48:51.020Z,18.90
2023-03-02T21:51:18.199Z,18.55
2023-03-02T21:53:44.824Z,19.45
2023-03-02T21:56:20.570Z,20.02
2023-03-02T21:58:51.331Z,21.13
2023-03-02T22:01:18.084Z,23.80
2023-03-02T22:03:45.119Z,22.25
2023-03-02T22:06:26.461Z,18.98
2023-03-02T22:08:53.955Z,22.52
2023-03-02T22:11:23.837Z,19.48
2023-03-02T22:13:52.124Z,22.60
2023-03-02T22:16:21.985Z,22.58
2023-03-02T22:18:53.584Z,22.00
2023-03-02T22:21:36.226Z,22.85
2023-03-02T22:27:18.272Z,19.65
2023-03-02T22:29:47.020Z,22.08
2023-03-02T22:32:44.021Z,19.40
2023-03-02T22:35:25.729Z,19.10
2023-03-02T22:38:00.138Z,18.98
2023-03-02T22:40:32.672Z,20.55
2023-03-02T22:45:46.036Z,21.90
2023-03-02T22:48:20.948Z,27.05
2023-03-02T22:50:49.523Z,32.15
2023-03-02T22:53:31.051Z,29.08
2023-03-02T22:56:03.568Z,31.63
2023-03-02T23:01:20.982Z,32.50
2023-03-02T23:03:50.752Z,35.90
2023-03-02T23:06:31.728Z,26.30
2023-03-02T23:09:01.834Z,46.80
2023-03-02T23:11:33.777Z,43.03
2023-03-02T23:14:02.965Z,36.53
2023-03-02T23:16:35.801Z,33.58
2023-03-02T23:19:03.986Z,34.05
2023-03-02T23:21:48.972Z,46.78
2023-03-02T23:24:17.758Z,41.90
2023-03-02T23:26:44.855Z,47.10
2023-03-02T23:29:11.610Z,43.17
2023-03-02T23:31:38.533Z,39.70
2023-03-02T23:34:05.570Z,39.17
2023-03-02T23:36:32.261Z,36.42
2023-03-02T23:38:59.027Z,26.05
2023-03-02T23:41:26.746Z,24.33
2023-03-02T23:43:53.420Z,38.47
2023-03-02T23:46:20.301Z,30.60
2023-03-02T23:48:47.880Z,30.25
2023-03-02T23:51:15.042Z,28.75
2023-03-02T23:53:41.797Z,35.72
2023-03-02T23:56:08.484Z,29.48
2023-03-02T23:58:35.290Z,31.67
